Belmopan, Belize
Current Conditions -  °F | °C
As of 4:00 PM on Sunday 21 Dec 2014 (Local Time) from MZBZ Reporting Station
Scattered Clouds Scattered Clouds  
Wind Chill: 84°   Ceiling: Unl
Heat Index: 91°   Visibility: 6mi
Dew Point: 73°   Wind: 6mph
Humidity: 70%   Direction: 100°E
Pressure: 29.9"   Gusts: NA
Location:  17.25°N, 88.79°W
Report Text: MZBZ 212200Z 10005KT 9999 SCT022 29/23 A2990 Q1012 NOSIG
Loading
Personal Weather Stations






























Interactive Weather Map New forecast layout! Learn more

10-Day Weather Forecast

Advertisements
Track Severe Weather on mobile